createdAt,value
2022-11-10T00:00:11.262Z,99479.00
2022-11-10T00:02:04.680Z,99482.00
2022-11-10T00:03:59.111Z,99485.00
2022-11-10T00:05:52.203Z,99492.00
2022-11-10T00:07:46.675Z,99489.00
2022-11-10T00:09:39.755Z,99504.00
2022-11-10T00:11:33.310Z,99499.00
2022-11-10T00:13:29.104Z,99505.00
2022-11-10T00:15:39.662Z,99506.00
2022-11-10T00:17:31.954Z,99502.00
2022-11-10T00:19:25.018Z,99509.00
2022-11-10T00:21:20.192Z,99512.00
2022-11-10T00:23:14.582Z,99512.00
2022-11-10T00:25:09.308Z,99521.00
2022-11-10T00:27:02.515Z,99507.00
2022-11-10T00:28:55.785Z,99527.00
2022-11-10T00:30:48.919Z,99512.00
2022-11-10T00:32:42.164Z,99521.00
2022-11-10T00:34:35.505Z,99523.00
2022-11-10T00:36:28.661Z,99520.00
2022-11-10T00:38:23.041Z,99520.00
2022-11-10T00:40:16.697Z,99524.00
2022-11-10T00:42:10.090Z,99532.00
2022-11-10T00:44:04.154Z,99536.00
2022-11-10T00:45:57.657Z,99529.00
2022-11-10T00:47:50.751Z,99532.00
2022-11-10T00:49:43.806Z,99534.00
2022-11-10T00:51:36.900Z,99531.00
2022-11-10T00:53:31.348Z,99534.00
2022-11-10T00:55:24.381Z,99543.00
2022-11-10T00:57:17.486Z,99534.00
2022-11-10T00:59:10.531Z,99538.00
2022-11-10T01:01:05.538Z,99547.00
2022-11-10T01:02:59.040Z,99545.00
2022-11-10T01:04:52.143Z,99546.00
2022-11-10T01:06:47.816Z,99554.00
2022-11-10T01:08:43.621Z,99549.00
2022-11-10T01:10:36.993Z,99555.00
2022-11-10T01:12:31.045Z,99555.00
2022-11-10T01:14:24.239Z,99554.00
2022-11-10T01:16:20.264Z,99554.00
2022-11-10T01:18:13.389Z,99557.00
2022-11-10T01:20:08.580Z,99553.00
2022-11-10T01:22:01.855Z,99554.00
2022-11-10T01:23:57.397Z,99550.00
2022-11-10T01:25:50.475Z,99551.00
2022-11-10T01:27:43.755Z,99567.00
2022-11-10T01:29:37.016Z,99557.00
2022-11-10T01:31:30.084Z,99565.00
2022-11-10T01:33:23.474Z,99565.00
2022-11-10T01:35:17.095Z,99562.00
2022-11-10T01:37:10.512Z,99576.00
2022-11-10T01:39:05.052Z,99565.00
2022-11-10T01:40:59.256Z,99569.00
2022-11-10T01:42:55.019Z,99588.00
2022-11-10T01:45:44.353Z,99589.00
2022-11-10T01:47:38.090Z,99593.00
2022-11-10T01:49:33.596Z,99593.00
2022-11-10T01:51:33.456Z,99585.00
2022-11-10T01:53:31.085Z,99592.00
2022-11-10T01:55:26.903Z,99593.00
2022-11-10T01:57:20.178Z,99592.00
2022-11-10T01:59:19.578Z,99581.00
2022-11-10T02:01:12.716Z,99584.00
2022-11-10T02:03:14.656Z,99582.00
2022-11-10T02:05:10.226Z,99592.00
2022-11-10T02:07:03.623Z,99590.00
2022-11-10T02:08:59.297Z,99595.00
2022-11-10T02:10:53.871Z,99601.00
2022-11-10T02:12:48.730Z,99596.00
2022-11-10T02:14:42.675Z,99595.00
2022-11-10T02:16:37.327Z,99602.00
2022-11-10T02:18:30.719Z,99609.00
2022-11-10T02:20:24.252Z,99605.00
2022-11-10T02:22:18.760Z,99615.00
2022-11-10T02:24:12.120Z,99612.00
2022-11-10T02:26:07.830Z,99614.00
2022-11-10T02:28:00.892Z,99611.00
2022-11-10T02:29:54.325Z,99616.00
2022-11-10T02:31:47.563Z,99618.00
2022-11-10T02:33:40.674Z,99623.00
2022-11-10T02:35:33.716Z,99627.00
2022-11-10T02:37:28.227Z,99628.00
2022-11-10T02:39:21.308Z,99623.00
2022-11-10T02:41:14.666Z,99624.00
2022-11-10T02:43:17.338Z,99624.00
2022-11-10T02:45:11.219Z,99621.00
2022-11-10T02:47:04.371Z,99621.00
2022-11-10T02:48:57.742Z,99625.00
2022-11-10T02:50:50.849Z,99636.00
2022-11-10T02:52:45.264Z,99637.00
2022-11-10T02:54:38.383Z,99640.00
2022-11-10T02:56:31.467Z,99636.00
2022-11-10T02:58:24.766Z,99634.00
2022-11-10T03:00:19.064Z,99641.00
2022-11-10T03:02:12.183Z,99634.00
2022-11-10T03:04:07.018Z,99639.00
2022-11-10T03:06:00.277Z,99641.00
2022-11-10T03:07:56.445Z,99642.00
2022-11-10T03:09:51.485Z,99646.00
2022-11-10T03:11:44.650Z,99648.00
2022-11-10T03:13:59.877Z,99649.00
2022-11-10T03:15:51.232Z,99660.00
2022-11-10T03:17:44.439Z,99655.00
2022-11-10T03:19:37.488Z,99663.00
2022-11-10T03:21:30.590Z,99656.00
2022-11-10T03:23:25.180Z,99674.00
2022-11-10T03:25:18.618Z,99671.00
2022-11-10T03:27:11.643Z,99678.00
2022-11-10T03:29:04.812Z,99677.00
2022-11-10T03:30:58.010Z,99665.00
2022-11-10T03:32:51.619Z,99664.00
2022-11-10T03:34:44.739Z,99659.00
2022-11-10T03:36:38.023Z,99663.00
2022-11-10T03:38:32.599Z,99663.00
2022-11-10T03:40:26.002Z,99668.00
2022-11-10T03:42:19.115Z,99662.00
2022-11-10T03:44:12.369Z,99658.00
2022-11-10T03:46:05.526Z,99658.00
2022-11-10T03:47:58.640Z,99666.00
2022-11-10T03:49:51.845Z,99665.00
2022-11-10T03:51:44.967Z,99672.00
2022-11-10T03:53:39.660Z,99681.00
2022-11-10T03:55:33.132Z,99694.00
2022-11-10T03:57:26.313Z,99685.00
2022-11-10T03:59:19.395Z,99688.00
2022-11-10T04:01:12.505Z,99704.00
2022-11-10T04:03:05.640Z,99699.00
2022-11-10T04:05:16.596Z,99699.00
2022-11-10T04:07:30.004Z,99703.00
2022-11-10T04:09:24.648Z,99711.00
2022-11-10T04:11:37.973Z,99711.00
2022-11-10T04:13:48.712Z,99719.00
2022-11-10T04:15:43.513Z,99715.00
2022-11-10T04:17:36.581Z,99718.00
2022-11-10T04:19:30.558Z,99715.00
2022-11-10T04:21:23.620Z,99723.00
2022-11-10T04:23:29.040Z,99729.00
2022-11-10T04:25:23.419Z,99734.00
2022-11-10T04:27:15.717Z,99728.00
2022-11-10T04:29:11.056Z,99738.00
2022-11-10T04:31:04.530Z,99734.00
2022-11-10T04:32:57.789Z,99738.00
2022-11-10T04:34:50.982Z,99744.00
2022-11-10T04:36:46.631Z,99749.00
2022-11-10T04:38:40.906Z,99762.00
2022-11-10T04:40:35.372Z,99765.00
2022-11-10T04:42:28.561Z,99761.00
2022-11-10T04:44:21.886Z,99757.00
2022-11-10T04:46:24.298Z,99765.00
2022-11-10T04:48:17.445Z,99757.00
2022-11-10T04:50:11.140Z,99763.00
2022-11-10T04:52:04.400Z,99764.00
2022-11-10T04:53:58.395Z,99766.00
2022-11-10T04:55:54.639Z,99772.00
2022-11-10T04:57:47.721Z,99769.00
2022-11-10T04:59:40.798Z,99784.00
2022-11-10T05:01:34.193Z,99793.00
2022-11-10T05:03:27.490Z,99784.00
2022-11-10T05:05:20.508Z,99793.00
2022-11-10T05:07:13.693Z,99801.00
2022-11-10T05:09:07.108Z,99802.00
2022-11-10T05:11:01.762Z,99809.00
2022-11-10T05:12:55.663Z,99808.00
2022-11-10T05:14:48.925Z,99807.00
2022-11-10T05:16:43.324Z,99813.00
2022-11-10T05:18:36.867Z,99826.00
2022-11-10T05:20:29.994Z,99813.00
2022-11-10T05:22:23.055Z,99823.00
2022-11-10T05:24:15.312Z,99820.00
2022-11-10T05:26:12.632Z,99830.00
2022-11-10T05:28:07.326Z,99829.00
2022-11-10T05:30:00.603Z,99818.00
2022-11-10T05:31:53.729Z,99823.00
2022-11-10T05:33:46.788Z,99828.00
2022-11-10T05:35:40.820Z,99826.00
2022-11-10T05:37:34.099Z,99822.00
2022-11-10T05:39:27.173Z,99833.00
2022-11-10T05:41:21.639Z,99833.00
2022-11-10T05:43:15.418Z,99844.00
2022-11-10T05:45:10.063Z,99846.00
2022-11-10T05:47:03.210Z,99848.00
2022-11-10T05:48:56.459Z,99858.00
2022-11-10T05:50:49.703Z,99850.00
2022-11-10T05:52:50.021Z,99852.00
2022-11-10T05:54:44.735Z,99853.00
2022-11-10T05:56:39.220Z,99861.00
2022-11-10T05:58:32.339Z,99868.00
2022-11-10T06:00:28.649Z,99872.00
2022-11-10T06:02:22.066Z,99871.00
2022-11-10T06:04:15.174Z,99882.00
2022-11-10T06:06:09.238Z,99876.00
2022-11-10T06:08:04.017Z,99883.00
2022-11-10T06:09:57.139Z,99892.00
2022-11-10T06:11:51.586Z,99897.00
2022-11-10T06:13:44.732Z,99888.00
2022-11-10T06:15:38.003Z,99883.00
2022-11-10T06:17:31.193Z,99889.00
2022-11-10T06:19:24.298Z,99891.00
2022-11-10T06:21:17.399Z,99890.00
2022-11-10T06:23:12.990Z,99892.00
2022-11-10T06:25:07.708Z,99904.00
2022-11-10T06:27:02.315Z,99903.00
2022-11-10T06:28:55.451Z,99911.00
2022-11-10T06:30:49.132Z,99913.00
2022-11-10T06:32:44.673Z,99912.00
2022-11-10T06:34:37.724Z,99922.00
2022-11-10T06:36:30.864Z,99915.00
2022-11-10T06:38:24.296Z,99926.00
2022-11-10T06:40:17.605Z,99932.00
2022-11-10T06:42:12.456Z,99930.00
2022-11-10T06:44:06.398Z,99923.00
2022-11-10T06:46:00.259Z,99936.00
2022-11-10T06:48:01.468Z,99945.00
2022-11-10T06:49:54.756Z,99944.00
2022-11-10T06:51:48.971Z,99942.00
2022-11-10T06:53:43.077Z,99949.00
2022-11-10T06:55:36.272Z,99958.00
2022-11-10T06:57:30.724Z,99957.00
2022-11-10T06:59:23.776Z,99964.00
2022-11-10T07:01:22.106Z,99963.00
2022-11-10T07:03:17.435Z,99969.00
2022-11-10T07:05:10.744Z,99965.00
2022-11-10T07:07:04.283Z,99968.00
2022-11-10T07:08:57.457Z,99969.00
2022-11-10T07:10:54.561Z,99970.00
2022-11-10T07:12:49.034Z,99975.00
2022-11-10T07:14:42.151Z,99972.00
2022-11-10T07:16:36.254Z,99975.00
2022-11-10T07:18:29.621Z,99980.00
2022-11-10T07:20:23.012Z,99979.00
2022-11-10T07:22:16.348Z,99974.00
2022-11-10T07:24:10.476Z,99977.00
2022-11-10T07:26:03.661Z,99987.00
2022-11-10T07:28:00.311Z,99987.00
2022-11-10T07:29:53.423Z,99990.00
2022-11-10T07:31:46.532Z,99991.00
2022-11-10T07:33:39.862Z,99999.00
2022-11-10T07:35:34.885Z,100004.00
2022-11-10T07:37:28.701Z,100008.00
2022-11-10T07:39:21.747Z,100007.00
2022-11-10T07:41:14.935Z,100013.00
2022-11-10T07:43:10.778Z,100012.00
2022-11-10T07:45:03.950Z,100023.00
2022-11-10T07:46:57.205Z,100035.00
2022-11-10T07:48:51.444Z,100026.00
2022-11-10T07:50:44.678Z,100021.00
2022-11-10T07:52:37.846Z,100029.00
2022-11-10T07:54:31.061Z,100029.00
2022-11-10T07:56:24.252Z,100043.00
2022-11-10T07:58:19.714Z,100042.00
2022-11-10T08:00:14.887Z,100031.00
2022-11-10T08:02:10.675Z,100044.00
2022-11-10T08:04:04.060Z,100042.00
2022-11-10T08:05:57.532Z,100043.00
2022-11-10T08:07:50.667Z,100053.00
2022-11-10T08:09:44.330Z,100057.00
2022-11-10T08:11:37.484Z,100063.00
2022-11-10T08:13:31.967Z,100062.00
2022-11-10T08:15:26.750Z,100068.00
2022-11-10T08:17:19.896Z,100075.00
2022-11-10T08:19:13.593Z,100081.00
2022-11-10T08:21:07.302Z,100076.00
2022-11-10T08:23:02.717Z,100080.00
2022-11-10T08:24:56.094Z,100075.00
2022-11-10T08:26:49.245Z,100085.00
2022-11-10T08:28:44.125Z,100081.00
2022-11-10T08:30:39.999Z,100090.00
2022-11-10T08:32:33.224Z,100094.00
2022-11-10T08:34:26.483Z,100100.00
2022-11-10T08:36:20.074Z,100101.00
2022-11-10T08:38:16.595Z,100104.00
2022-11-10T08:40:11.504Z,100102.00
2022-11-10T08:42:06.452Z,100104.00
2022-11-10T08:44:01.009Z,100113.00
2022-11-10T08:45:57.257Z,100119.00
2022-11-10T08:48:00.152Z,100111.00
2022-11-10T08:49:53.266Z,100109.00
2022-11-10T08:51:46.551Z,100108.00
2022-11-10T08:53:39.893Z,100103.00
2022-11-10T08:55:33.136Z,100106.00
2022-11-10T08:57:26.403Z,100106.00
2022-11-10T08:59:20.914Z,100110.00
2022-11-10T09:01:14.539Z,100113.00
2022-11-10T09:03:11.942Z,100128.00
2022-11-10T09:05:05.489Z,100125.00
2022-11-10T09:06:59.358Z,100130.00
2022-11-10T09:08:52.956Z,100137.00
2022-11-10T09:10:50.102Z,100141.00
2022-11-10T09:12:44.395Z,100147.00
2022-11-10T09:14:39.086Z,100142.00
2022-11-10T09:16:32.541Z,100147.00
2022-11-10T09:18:25.892Z,100158.00
2022-11-10T09:20:19.348Z,100157.00
2022-11-10T09:22:12.463Z,100161.00
2022-11-10T09:24:06.763Z,100152.00
2022-11-10T09:25:59.871Z,100158.00
2022-11-10T09:27:53.014Z,100159.00
2022-11-10T09:29:47.546Z,100151.00
2022-11-10T09:31:41.489Z,100152.00
2022-11-10T09:33:34.606Z,100146.00
2022-11-10T09:35:29.211Z,100153.00
2022-11-10T09:37:22.504Z,100160.00
2022-11-10T09:39:16.230Z,100166.00
2022-11-10T09:41:13.821Z,100152.00
2022-11-10T09:43:16.096Z,100158.00
2022-11-10T09:45:23.633Z,100160.00
2022-11-10T09:49:45.654Z,100175.00
2022-11-10T09:51:48.169Z,100162.00
2022-11-10T09:53:51.337Z,100166.00
2022-11-10T09:55:50.209Z,100180.00
2022-11-10T09:57:48.866Z,100176.00
2022-11-10T09:59:44.639Z,100172.00
2022-11-10T10:01:49.050Z,100175.00
2022-11-10T10:03:49.915Z,100181.00
2022-11-10T10:06:02.237Z,100187.00
2022-11-10T10:08:03.036Z,100186.00
2022-11-10T10:10:06.245Z,100178.00
2022-11-10T10:12:20.051Z,100188.00
2022-11-10T10:14:48.186Z,100199.00
2022-11-10T10:16:52.269Z,100189.00
2022-11-10T10:19:00.350Z,100189.00
2022-11-10T10:21:18.438Z,100196.00
2022-11-10T10:23:46.773Z,100182.00
2022-11-10T10:25:42.551Z,100177.00
2022-11-10T10:27:41.361Z,100182.00
2022-11-10T10:29:41.774Z,100186.00
2022-11-10T10:31:40.477Z,100189.00
2022-11-10T10:33:34.937Z,100186.00
2022-11-10T10:35:31.245Z,100194.00
2022-11-10T10:37:28.920Z,100189.00
2022-11-10T10:39:30.201Z,100200.00
2022-11-10T10:41:27.288Z,100196.00
2022-11-10T10:43:20.550Z,100198.00
2022-11-10T10:45:20.756Z,100200.00
2022-11-10T10:47:13.974Z,100196.00
2022-11-10T10:49:33.733Z,100206.00
2022-11-10T10:51:31.613Z,100201.00
2022-11-10T10:53:26.154Z,100199.00
2022-11-10T10:55:19.578Z,100198.00
2022-11-10T10:57:24.918Z,100193.00
2022-11-10T10:59:23.290Z,100194.00
2022-11-10T11:01:30.597Z,100193.00
2022-11-10T11:03:29.831Z,100188.00
2022-11-10T11:05:24.657Z,100185.00
2022-11-10T11:07:24.881Z,100184.00
2022-11-10T11:09:23.451Z,100179.00
2022-11-10T11:11:16.565Z,100181.00
2022-11-10T11:13:21.826Z,100201.00
2022-11-10T11:15:26.716Z,100209.00
2022-11-10T11:17:22.679Z,100203.00
2022-11-10T11:19:16.415Z,100210.00
2022-11-10T11:21:26.478Z,100223.00
2022-11-10T11:23:43.928Z,100220.00
2022-11-10T11:25:43.367Z,100226.00
2022-11-10T11:27:47.217Z,100230.00
2022-11-10T11:30:09.169Z,100228.00
2022-11-10T11:32:21.985Z,100232.00
2022-11-10T11:34:25.048Z,100242.00
2022-11-10T11:36:30.604Z,100251.00
2022-11-10T11:38:33.088Z,100251.00
2022-11-10T11:40:38.241Z,100248.00
2022-11-10T11:42:49.212Z,100252.00
2022-11-10T11:45:01.360Z,100241.00
2022-11-10T11:47:06.865Z,100245.00
2022-11-10T11:49:26.888Z,100250.00
2022-11-10T11:51:29.293Z,100238.00
2022-11-10T11:53:44.566Z,100243.00
2022-11-10T11:56:00.457Z,100254.00
2022-11-10T11:58:18.399Z,100251.00
2022-11-10T12:00:16.406Z,100249.00
2022-11-10T12:03:02.816Z,100252.00
2022-11-10T12:05:13.737Z,100254.00
2022-11-10T12:07:28.973Z,100255.00
2022-11-10T12:09:34.869Z,100254.00
2022-11-10T12:11:49.699Z,100252.00
2022-11-10T12:13:58.746Z,100254.00
2022-11-10T12:16:00.442Z,100252.00
2022-11-10T12:18:07.855Z,100252.00
2022-11-10T12:20:15.968Z,100259.00
2022-11-10T12:22:25.053Z,100254.00
2022-11-10T12:24:56.185Z,100254.00
2022-11-10T12:26:58.179Z,100271.00
2022-11-10T12:29:00.028Z,100257.00
2022-11-10T12:31:02.103Z,100252.00
2022-11-10T12:33:03.436Z,100259.00
2022-11-10T12:35:04.234Z,100247.00
2022-11-10T12:37:00.975Z,100262.00
2022-11-10T12:39:04.280Z,100260.00
2022-11-10T12:41:08.828Z,100252.00
2022-11-10T12:43:05.952Z,100253.00
2022-11-10T12:45:03.836Z,100239.00
2022-11-10T12:47:03.256Z,100251.00
2022-11-10T12:49:11.496Z,100257.00
2022-11-10T12:51:11.677Z,100261.00
2022-11-10T12:53:15.185Z,100262.00
2022-11-10T12:55:14.796Z,100261.00
2022-11-10T12:57:15.281Z,100260.00
2022-11-10T12:59:33.029Z,100261.00
2022-11-10T13:01:26.409Z,100267.00
2022-11-10T13:03:32.505Z,100270.00
2022-11-10T13:05:35.189Z,100265.00
2022-11-10T13:07:28.483Z,100267.00
2022-11-10T13:09:28.959Z,100263.00
2022-11-10T13:11:28.779Z,100274.00
2022-11-10T13:13:24.212Z,100275.00
2022-11-10T13:15:47.500Z,100285.00
2022-11-10T13:17:56.777Z,100289.00
2022-11-10T13:19:54.285Z,100275.00
2022-11-10T13:22:11.085Z,100282.00
2022-11-10T13:24:24.831Z,100299.00
2022-11-10T13:26:52.571Z,100285.00
2022-11-10T13:29:01.593Z,100296.00
2022-11-10T13:30:54.910Z,100304.00
2022-11-10T13:32:48.020Z,100304.00
2022-11-10T13:34:42.122Z,100300.00
2022-11-10T13:36:39.842Z,100312.00
2022-11-10T13:38:39.780Z,100309.00
2022-11-10T13:40:39.556Z,100299.00
2022-11-10T13:42:34.073Z,100294.00
2022-11-10T13:44:30.733Z,100298.00
2022-11-10T13:46:36.062Z,100290.00
2022-11-10T13:48:54.283Z,100297.00
2022-11-10T13:50:55.239Z,100294.00
2022-11-10T13:53:10.183Z,100305.00
2022-11-10T13:55:19.974Z,100314.00
2022-11-10T13:57:31.105Z,100315.00
2022-11-10T13:59:29.477Z,100308.00
2022-11-10T14:01:30.159Z,100306.00
2022-11-10T14:03:57.692Z,100308.00
2022-11-10T14:06:13.473Z,100308.00
2022-11-10T14:08:14.193Z,100302.00
2022-11-10T14:10:17.194Z,100309.00
2022-11-10T14:12:26.707Z,100306.00
2022-11-10T14:14:30.213Z,100299.00
2022-11-10T14:16:26.083Z,100292.00
2022-11-10T14:18:24.901Z,100301.00
2022-11-10T14:20:26.932Z,100307.00
2022-11-10T14:22:29.013Z,100304.00
2022-11-10T14:24:29.089Z,100309.00
2022-11-10T14:26:30.011Z,100308.00
2022-11-10T14:28:27.208Z,100300.00
2022-11-10T14:30:25.800Z,100301.00
2022-11-10T14:32:22.550Z,100297.00
2022-11-10T14:34:18.458Z,100302.00
2022-11-10T14:36:14.985Z,100305.00
2022-11-10T14:38:20.974Z,100301.00
2022-11-10T14:40:20.830Z,100295.00
2022-11-10T14:42:21.560Z,100299.00
2022-11-10T14:44:22.552Z,100293.00
2022-11-10T14:46:16.964Z,100299.00
2022-11-10T14:48:20.687Z,100304.00
2022-11-10T14:50:22.081Z,100300.00
2022-11-10T14:52:15.485Z,100311.00
2022-11-10T14:54:25.429Z,100308.00
2022-11-10T14:56:25.921Z,100291.00
2022-11-10T14:58:26.375Z,100304.00
2022-11-10T15:00:28.369Z,100308.00
2022-11-10T15:02:23.011Z,100297.00
2022-11-10T15:04:17.171Z,100299.00
2022-11-10T15:06:13.058Z,100300.00
2022-11-10T15:08:07.505Z,100306.00
2022-11-10T15:10:13.949Z,100310.00
2022-11-10T15:12:21.105Z,100306.00
2022-11-10T15:14:38.116Z,100309.00
2022-11-10T15:16:34.078Z,100314.00
2022-11-10T15:18:31.084Z,100330.00
2022-11-10T15:20:30.295Z,100318.00
2022-11-10T15:22:30.589Z,100321.00
2022-11-10T15:24:26.990Z,100321.00
2022-11-10T15:26:24.641Z,100319.00
2022-11-10T15:28:30.284Z,100325.00
2022-11-10T15:30:26.680Z,100337.00
2022-11-10T15:32:23.891Z,100330.00
2022-11-10T15:34:44.223Z,100336.00
2022-11-10T15:36:40.357Z,100337.00
2022-11-10T15:38:33.767Z,100335.00
2022-11-10T15:40:36.052Z,100339.00
2022-11-10T15:42:29.306Z,100341.00
2022-11-10T15:44:26.205Z,100338.00
2022-11-10T15:46:24.705Z,100345.00
2022-11-10T15:48:19.659Z,100341.00
2022-11-10T15:50:16.078Z,100346.00
2022-11-10T15:52:19.996Z,100350.00
2022-11-10T15:54:13.564Z,100366.00
2022-11-10T15:56:09.092Z,100365.00
2022-11-10T15:58:02.443Z,100363.00
2022-11-10T15:59:55.832Z,100359.00
2022-11-10T16:01:50.939Z,100366.00
2022-11-10T16:03:44.791Z,100366.00
2022-11-10T16:05:41.060Z,100362.00
2022-11-10T16:07:34.202Z,100352.00
2022-11-10T16:09:27.287Z,100350.00
2022-11-10T16:11:22.878Z,100354.00
2022-11-10T16:13:19.418Z,100346.00
2022-11-10T16:15:21.263Z,100354.00
2022-11-10T16:17:14.925Z,100359.00
2022-11-10T16:19:10.442Z,100358.00
2022-11-10T16:21:05.120Z,100355.00
2022-11-10T16:22:58.366Z,100375.00
2022-11-10T16:24:51.500Z,100376.00
2022-11-10T16:26:44.713Z,100374.00
2022-11-10T16:28:37.848Z,100376.00
2022-11-10T16:30:31.314Z,100384.00
2022-11-10T16:32:24.698Z,100380.00
2022-11-10T16:34:17.915Z,100377.00
2022-11-10T16:36:24.894Z,100379.00
2022-11-10T16:38:23.050Z,100392.00
2022-11-10T16:40:18.564Z,100403.00
2022-11-10T16:42:12.858Z,100409.00
2022-11-10T16:44:07.119Z,100415.00
2022-11-10T16:46:05.656Z,100428.00
2022-11-10T16:47:59.332Z,100420.00
2022-11-10T16:49:52.612Z,100416.00
2022-11-10T16:51:49.161Z,100418.00
2022-11-10T16:53:43.262Z,100417.00
2022-11-10T16:55:36.698Z,100428.00
2022-11-10T16:57:30.030Z,100430.00
2022-11-10T16:59:23.730Z,100445.00
2022-11-10T17:01:21.762Z,100440.00
2022-11-10T17:03:22.588Z,100435.00
2022-11-10T17:05:16.740Z,100438.00
2022-11-10T17:07:15.455Z,100450.00
2022-11-10T17:09:17.334Z,100447.00
2022-11-10T17:11:11.046Z,100445.00
2022-11-10T17:13:04.579Z,100434.00
2022-11-10T17:14:57.892Z,100439.00
2022-11-10T17:16:51.209Z,100436.00
2022-11-10T17:18:45.793Z,100431.00
2022-11-10T17:20:43.306Z,100440.00
2022-11-10T17:22:37.743Z,100441.00
2022-11-10T17:24:31.102Z,100445.00
2022-11-10T17:26:24.248Z,100447.00
2022-11-10T17:28:20.252Z,100460.00
2022-11-10T17:30:14.741Z,100453.00
2022-11-10T17:32:07.929Z,100460.00
2022-11-10T17:34:01.094Z,100467.00
2022-11-10T17:35:55.112Z,100463.00
2022-11-10T17:37:54.928Z,100477.00
2022-11-10T17:39:48.091Z,100482.00
2022-11-10T17:41:41.247Z,100470.00
2022-11-10T17:43:34.367Z,100477.00
2022-11-10T17:45:29.922Z,100478.00
2022-11-10T17:47:22.967Z,100485.00
2022-11-10T17:49:16.116Z,100483.00
2022-11-10T17:51:14.896Z,100493.00
2022-11-10T17:53:21.208Z,100500.00
2022-11-10T17:55:20.661Z,100506.00
2022-11-10T17:57:14.149Z,100512.00
2022-11-10T17:59:07.295Z,100504.00
2022-11-10T18:01:00.585Z,100508.00
2022-11-10T18:02:55.658Z,100513.00
2022-11-10T18:04:49.026Z,100509.00
2022-11-10T18:06:42.276Z,100507.00
2022-11-10T18:08:37.734Z,100512.00
2022-11-10T18:10:31.205Z,100523.00
2022-11-10T18:12:27.959Z,100518.00
2022-11-10T18:14:21.291Z,100513.00
2022-11-10T18:16:15.422Z,100518.00
2022-11-10T18:18:13.136Z,100526.00
2022-11-10T18:20:10.014Z,100523.00
2022-11-10T18:22:03.180Z,100525.00
2022-11-10T18:23:57.627Z,100519.00
2022-11-10T18:25:51.096Z,100512.00
2022-11-10T18:27:44.287Z,100520.00
2022-11-10T18:29:37.416Z,100516.00
2022-11-10T18:31:30.705Z,100517.00
2022-11-10T18:33:24.243Z,100519.00
2022-11-10T18:35:17.941Z,100513.00
2022-11-10T18:37:11.065Z,100509.00
2022-11-10T18:39:05.592Z,100510.00
2022-11-10T18:41:25.443Z,100520.00
2022-11-10T18:43:18.842Z,100502.00
2022-11-10T18:45:12.866Z,100503.00
2022-11-10T18:47:07.061Z,100500.00
2022-11-10T18:49:00.372Z,100512.00
2022-11-10T18:50:53.544Z,100525.00
2022-11-10T18:52:47.560Z,100523.00
2022-11-10T18:54:42.146Z,100519.00
2022-11-10T18:56:35.635Z,100517.00
2022-11-10T18:58:28.836Z,100520.00
2022-11-10T19:00:22.346Z,100506.00
2022-11-10T19:02:15.782Z,100505.00
2022-11-10T19:04:09.300Z,100508.00
2022-11-10T19:06:03.408Z,100509.00
2022-11-10T19:07:56.682Z,100508.00
2022-11-10T19:09:51.131Z,100515.00
2022-11-10T19:11:44.801Z,100519.00
2022-11-10T19:13:39.393Z,100509.00
2022-11-10T19:15:32.579Z,100516.00
2022-11-10T19:17:25.667Z,100513.00
2022-11-10T19:19:18.760Z,100514.00
2022-11-10T19:21:14.848Z,100538.00
2022-11-10T19:23:08.097Z,100534.00
2022-11-10T19:25:09.770Z,100546.00
2022-11-10T19:27:03.083Z,100552.00
2022-11-10T19:28:57.247Z,100540.00
2022-11-10T19:30:50.319Z,100548.00
2022-11-10T19:32:43.608Z,100550.00
2022-11-10T19:34:36.685Z,100547.00
2022-11-10T19:36:30.180Z,100547.00
2022-11-10T19:38:23.344Z,100548.00
2022-11-10T19:40:17.908Z,100543.00
2022-11-10T19:42:11.412Z,100543.00
2022-11-10T19:44:04.924Z,100544.00
2022-11-10T19:46:01.784Z,100551.00
2022-11-10T19:47:57.123Z,100539.00
2022-11-10T19:49:50.388Z,100540.00
2022-11-10T19:51:43.520Z,100554.00
2022-11-10T19:53:36.897Z,100548.00
2022-11-10T19:55:33.296Z,100552.00
2022-11-10T19:57:27.911Z,100557.00
2022-11-10T19:59:21.151Z,100558.00
2022-11-10T20:01:16.111Z,100563.00
2022-11-10T20:03:11.347Z,100557.00
2022-11-10T20:05:15.847Z,100559.00
2022-11-10T20:07:26.549Z,100552.00
2022-11-10T20:09:22.798Z,100557.00
2022-11-10T20:11:21.045Z,100549.00
2022-11-10T20:13:17.031Z,100540.00
2022-11-10T20:15:14.470Z,100529.00
2022-11-10T20:17:07.772Z,100529.00
2022-11-10T20:19:01.177Z,100536.00
2022-11-10T20:20:54.333Z,100548.00
2022-11-10T20:22:47.429Z,100548.00
2022-11-10T20:24:47.068Z,100559.00
2022-11-10T20:26:45.413Z,100547.00
2022-11-10T20:28:39.746Z,100551.00
2022-11-10T20:30:35.265Z,100545.00
2022-11-10T20:32:28.663Z,100543.00
2022-11-10T20:34:21.774Z,100556.00
2022-11-10T20:36:20.869Z,100563.00
2022-11-10T20:38:16.645Z,100561.00
2022-11-10T20:40:37.725Z,100575.00
2022-11-10T20:42:25.313Z,100571.00
2022-11-10T20:44:18.443Z,100565.00
2022-11-10T20:46:33.197Z,100561.00
2022-11-10T20:48:31.891Z,100552.00
2022-11-10T20:50:24.928Z,100556.00
2022-11-10T20:52:18.450Z,100551.00
2022-11-10T20:54:11.592Z,100542.00
2022-11-10T20:56:05.684Z,100534.00
2022-11-10T20:58:00.081Z,100536.00
2022-11-10T20:59:53.235Z,100542.00
2022-11-10T21:01:47.431Z,100537.00
2022-11-10T21:03:41.393Z,100536.00
2022-11-10T21:05:34.425Z,100547.00
2022-11-10T21:07:27.575Z,100538.00
2022-11-10T21:09:20.885Z,100554.00
2022-11-10T21:11:34.184Z,100550.00
2022-11-10T21:13:28.605Z,100557.00
2022-11-10T21:15:22.528Z,100561.00
2022-11-10T21:17:15.615Z,100568.00
2022-11-10T21:19:09.012Z,100571.00
2022-11-10T21:21:02.393Z,100573.00
2022-11-10T21:23:02.110Z,100578.00
2022-11-10T21:24:56.529Z,100583.00
2022-11-10T21:26:49.800Z,100589.00
2022-11-10T21:28:44.395Z,100588.00
2022-11-10T21:30:37.681Z,100592.00
2022-11-10T21:32:31.029Z,100593.00
2022-11-10T21:34:24.157Z,100598.00
2022-11-10T21:36:17.541Z,100594.00
2022-11-10T21:38:12.904Z,100603.00
2022-11-10T21:40:07.673Z,100609.00
2022-11-10T21:42:00.793Z,100612.00
2022-11-10T21:43:55.463Z,100598.00
2022-11-10T21:45:48.546Z,100589.00
2022-11-10T21:47:41.785Z,100595.00
2022-11-10T21:49:34.883Z,100592.00
2022-11-10T21:51:27.968Z,100586.00
2022-11-10T21:53:21.574Z,100597.00
2022-11-10T21:55:14.999Z,100602.00
2022-11-10T21:57:08.101Z,100607.00
2022-11-10T21:59:02.899Z,100615.00
2022-11-10T22:01:02.608Z,100602.00
2022-11-10T22:02:59.319Z,100601.00
2022-11-10T22:04:52.607Z,100601.00
2022-11-10T22:07:03.498Z,100614.00
2022-11-10T22:08:56.632Z,100606.00
2022-11-10T22:11:07.552Z,100616.00
2022-11-10T22:13:18.071Z,100609.00
2022-11-10T22:15:33.539Z,100617.00
2022-11-10T22:17:44.014Z,100619.00
2022-11-10T22:19:38.126Z,100603.00
2022-11-10T22:21:31.385Z,100600.00
2022-11-10T22:23:44.765Z,100601.00
2022-11-10T22:25:38.784Z,100610.00
2022-11-10T22:27:31.854Z,100614.00
2022-11-10T22:29:31.222Z,100623.00
2022-11-10T22:31:26.396Z,100624.00
2022-11-10T22:33:28.375Z,100621.00